createdAt,value
2022-08-01T00:00:08.740Z,1.63
2022-08-01T00:02:37.578Z,1.40
2022-08-01T00:05:13.666Z,1.45
2022-08-01T00:07:41.878Z,1.50
2022-08-01T00:10:11.270Z,1.20
2022-08-01T00:12:38.798Z,1.38
2022-08-01T00:15:07.340Z,1.52
2022-08-01T00:17:34.378Z,1.73
2022-08-01T00:20:01.748Z,1.50
2022-08-01T00:22:28.625Z,1.52
2022-08-01T00:24:55.451Z,1.63
2022-08-01T00:27:22.263Z,1.48
2022-08-01T00:30:12.816Z,1.42
2022-08-01T00:32:36.507Z,1.90
2022-08-01T00:35:03.640Z,1.60
2022-08-01T00:37:30.452Z,1.60
2022-08-01T00:39:57.216Z,1.55
2022-08-01T00:42:24.008Z,1.77
2022-08-01T00:44:50.870Z,1.80
2022-08-01T00:47:18.003Z,1.83
2022-08-01T00:49:45.057Z,1.70
2022-08-01T00:52:12.354Z,1.60
2022-08-01T00:54:40.092Z,1.52
2022-08-01T00:57:10.199Z,1.52
2022-08-01T00:59:37.962Z,1.48
2022-08-01T01:02:14.854Z,1.73
2022-08-01T01:04:43.771Z,1.40
2022-08-01T01:07:50.782Z,2.00
2022-08-01T01:10:22.431Z,1.83
2022-08-01T01:13:00.302Z,2.08
2022-08-01T01:15:45.930Z,2.40
2022-08-01T01:18:16.852Z,2.13
2022-08-01T01:20:46.711Z,2.10
2022-08-01T01:23:28.656Z,1.80
2022-08-01T01:26:37.206Z,1.77
2022-08-01T01:29:14.531Z,2.13
2022-08-01T01:31:56.262Z,2.00
2022-08-01T01:34:24.732Z,1.95
2022-08-01T01:36:55.014Z,2.25
2022-08-01T01:39:25.359Z,1.98
2022-08-01T01:41:55.196Z,2.03
2022-08-01T01:44:22.024Z,2.05
2022-08-01T01:46:50.162Z,2.38
2022-08-01T01:49:20.463Z,1.98
2022-08-01T01:51:59.978Z,1.80
2022-08-01T01:54:40.212Z,2.55
2022-08-01T01:57:13.565Z,2.30
2022-08-01T01:59:45.200Z,2.10
2022-08-01T02:02:13.815Z,2.25
2022-08-01T02:04:47.922Z,2.58
2022-08-01T02:07:23.631Z,1.90
2022-08-01T02:09:52.031Z,2.05
2022-08-01T02:12:20.083Z,2.40
2022-08-01T02:14:49.346Z,2.28
2022-08-01T02:17:18.951Z,2.50
2022-08-01T02:19:46.606Z,2.33
2022-08-01T02:22:30.063Z,2.20
2022-08-01T02:25:03.463Z,2.30
2022-08-01T02:27:39.176Z,2.40
2022-08-01T02:30:08.619Z,2.42
2022-08-01T02:32:47.037Z,2.60
2022-08-01T02:35:20.993Z,2.75
2022-08-01T02:37:49.406Z,2.88
2022-08-01T02:40:18.720Z,2.63
2022-08-01T02:42:48.646Z,2.95
2022-08-01T02:45:18.604Z,2.63
2022-08-01T02:47:46.625Z,2.70
2022-08-01T02:50:15.183Z,2.92
2022-08-01T02:52:45.094Z,2.60
2022-08-01T02:55:13.061Z,2.85
2022-08-01T02:57:52.122Z,2.80
2022-08-01T03:00:27.996Z,3.03
2022-08-01T03:02:56.796Z,3.97
2022-08-01T03:05:25.985Z,3.58
2022-08-01T03:07:56.214Z,3.40
2022-08-01T03:10:31.728Z,3.00
2022-08-01T03:13:01.219Z,2.97
2022-08-01T03:15:31.437Z,3.20
2022-08-01T03:18:00.484Z,2.83
2022-08-01T03:20:29.572Z,3.28
2022-08-01T03:22:58.633Z,3.00
2022-08-01T03:25:27.554Z,2.60
2022-08-01T03:27:57.625Z,3.10
2022-08-01T03:30:26.148Z,3.30
2022-08-01T03:32:53.370Z,2.60
2022-08-01T03:35:22.433Z,2.85
2022-08-01T03:38:15.338Z,2.92
2022-08-01T03:40:49.729Z,2.72
2022-08-01T03:43:39.005Z,2.92
2022-08-01T03:46:09.656Z,3.42
2022-08-01T03:48:41.673Z,3.30
2022-08-01T03:51:09.764Z,3.20
2022-08-01T03:53:41.126Z,3.50
2022-08-01T03:56:11.030Z,4.35
2022-08-01T03:58:44.649Z,3.38
2022-08-01T04:01:18.368Z,3.35
2022-08-01T04:03:45.898Z,3.17
2022-08-01T04:06:14.880Z,3.58
2022-08-01T04:08:42.262Z,3.63
2022-08-01T04:11:10.097Z,3.90
2022-08-01T04:13:38.467Z,3.50
2022-08-01T04:16:06.354Z,3.75
2022-08-01T04:18:33.578Z,3.65
2022-08-01T04:21:00.531Z,3.22
2022-08-01T04:23:32.405Z,3.33
2022-08-01T04:26:02.773Z,3.72
2022-08-01T04:28:31.375Z,3.00
2022-08-01T04:31:02.157Z,3.67
2022-08-01T04:33:31.727Z,3.42
2022-08-01T04:36:02.294Z,3.65
2022-08-01T04:38:34.380Z,3.55
2022-08-01T04:41:08.456Z,3.15
2022-08-01T04:43:37.273Z,3.13
2022-08-01T04:46:05.061Z,3.22
2022-08-01T04:48:34.603Z,3.50
2022-08-01T04:51:06.026Z,3.70
2022-08-01T04:53:33.536Z,3.60
2022-08-01T04:56:00.508Z,3.22
2022-08-01T04:58:27.297Z,3.38
2022-08-01T05:00:54.159Z,3.40
2022-08-01T05:03:21.243Z,3.50
2022-08-01T05:05:48.056Z,2.92
2022-08-01T05:08:15.429Z,3.20
2022-08-01T05:10:42.224Z,3.17
2022-08-01T05:13:09.857Z,2.80
2022-08-01T05:15:40.253Z,2.67
2022-08-01T05:18:08.781Z,2.40
2022-08-01T05:20:37.925Z,2.35
2022-08-01T05:23:10.943Z,2.10
2022-08-01T05:25:57.094Z,1.98
2022-08-01T05:28:24.383Z,1.92
2022-08-01T05:30:51.243Z,2.30
2022-08-01T05:33:18.078Z,2.13
2022-08-01T05:35:48.559Z,2.20
2022-08-01T05:38:16.403Z,2.28
2022-08-01T05:40:43.206Z,2.92
2022-08-01T05:43:10.111Z,2.72
2022-08-01T05:45:39.880Z,2.63
2022-08-01T05:48:07.044Z,2.35
2022-08-01T05:50:34.748Z,2.13
2022-08-01T05:53:02.164Z,2.65
2022-08-01T05:55:29.365Z,1.95
2022-08-01T05:57:56.624Z,2.08
2022-08-01T06:00:23.397Z,2.33
2022-08-01T06:02:50.205Z,1.60
2022-08-01T06:05:16.972Z,2.08
2022-08-01T06:07:43.848Z,2.33
2022-08-01T06:10:11.305Z,2.15
2022-08-01T06:12:38.345Z,1.77
2022-08-01T06:15:08.830Z,2.20
2022-08-01T06:17:35.758Z,1.80
2022-08-01T06:20:03.602Z,1.80
2022-08-01T06:22:30.423Z,2.10
2022-08-01T06:24:58.650Z,1.98
2022-08-01T06:27:28.466Z,2.00
2022-08-01T06:29:55.782Z,2.00
2022-08-01T06:32:26.940Z,1.80
2022-08-01T06:34:55.210Z,2.00
2022-08-01T06:37:22.565Z,2.00
2022-08-01T06:39:50.664Z,2.00
2022-08-01T06:42:18.547Z,2.03
2022-08-01T06:44:46.165Z,2.60
2022-08-01T06:47:13.034Z,2.10
2022-08-01T06:49:39.853Z,2.20
2022-08-01T06:52:07.680Z,2.30
2022-08-01T06:54:37.539Z,2.22
2022-08-01T06:57:07.603Z,2.30
2022-08-01T06:59:34.572Z,2.42
2022-08-01T07:02:02.421Z,2.42
2022-08-01T07:04:29.368Z,2.75
2022-08-01T07:06:56.509Z,2.50
2022-08-01T07:09:23.373Z,2.85
2022-08-01T07:11:51.518Z,2.90
2022-08-01T07:14:19.110Z,2.75
2022-08-01T07:16:46.506Z,2.70
2022-08-01T07:19:13.451Z,2.58
2022-08-01T07:21:41.848Z,3.00
2022-08-01T07:24:13.921Z,2.70
2022-08-01T07:26:53.571Z,2.63
2022-08-01T07:29:28.051Z,2.53
2022-08-01T07:31:56.620Z,2.55
2022-08-01T07:34:24.312Z,2.47
2022-08-01T07:36:52.289Z,2.40
2022-08-01T07:39:19.233Z,2.05
2022-08-01T07:42:06.378Z,2.20
2022-08-01T07:44:33.055Z,2.63
2022-08-01T07:47:01.612Z,2.30
2022-08-01T07:49:28.825Z,1.95
2022-08-01T07:52:03.693Z,2.75
2022-08-01T07:54:35.255Z,2.20
2022-08-01T07:57:03.587Z,2.10
2022-08-01T07:59:30.555Z,2.65
2022-08-01T08:01:57.563Z,2.90
2022-08-01T08:04:24.449Z,2.58
2022-08-01T08:06:51.868Z,2.50
2022-08-01T08:09:18.628Z,2.47
2022-08-01T08:11:48.050Z,2.50
2022-08-01T08:14:16.657Z,2.10
2022-08-01T08:16:44.299Z,2.05
2022-08-01T08:19:11.832Z,2.58
2022-08-01T08:21:39.357Z,2.25
2022-08-01T08:24:26.716Z,2.53
2022-08-01T08:27:01.778Z,2.40
2022-08-01T08:29:31.476Z,2.40
2022-08-01T08:31:59.285Z,2.75
2022-08-01T08:34:27.452Z,2.40
2022-08-01T08:36:56.178Z,2.08
2022-08-01T08:39:24.418Z,2.38
2022-08-01T08:41:51.809Z,2.20
2022-08-01T08:44:21.100Z,2.40
2022-08-01T08:46:53.741Z,2.03
2022-08-01T08:49:23.441Z,2.47
2022-08-01T08:51:54.383Z,2.30
2022-08-01T08:54:29.545Z,2.65
2022-08-01T08:57:00.687Z,1.90
2022-08-01T08:59:29.076Z,2.15
2022-08-01T09:01:56.650Z,2.30
2022-08-01T09:04:26.313Z,2.63
2022-08-01T09:06:54.548Z,2.00
2022-08-01T09:09:21.534Z,2.30
2022-08-01T09:11:57.564Z,2.50
2022-08-01T09:14:28.109Z,2.30
2022-08-01T09:17:11.310Z,2.22
2022-08-01T09:19:41.707Z,2.00
2022-08-01T09:22:14.961Z,1.83
2022-08-01T09:24:42.500Z,1.90
2022-08-01T09:27:22.431Z,2.28
2022-08-01T09:30:00.810Z,1.90
2022-08-01T09:32:38.234Z,2.15
2022-08-01T09:35:36.175Z,2.00
2022-08-01T09:38:23.096Z,1.90
2022-08-01T09:40:54.830Z,1.83
2022-08-01T09:43:24.566Z,1.90
2022-08-01T09:45:53.325Z,1.83
2022-08-01T09:48:28.417Z,1.83
2022-08-01T09:51:04.580Z,1.55
2022-08-01T09:53:52.489Z,2.08
2022-08-01T09:56:22.795Z,1.80
2022-08-01T09:58:59.949Z,1.70
2022-08-01T10:01:37.343Z,1.80
2022-08-01T10:04:15.163Z,1.83
2022-08-01T10:06:50.651Z,1.63
2022-08-01T10:09:28.288Z,1.80
2022-08-01T10:12:08.803Z,1.80
2022-08-01T10:14:38.637Z,1.70
2022-08-01T10:17:18.464Z,1.58
2022-08-01T10:19:47.862Z,1.83
2022-08-01T10:22:17.473Z,2.10
2022-08-01T10:24:48.150Z,2.13
2022-08-01T10:27:24.357Z,1.80
2022-08-01T10:30:05.492Z,1.60
2022-08-01T10:32:36.722Z,1.50
2022-08-01T10:35:14.788Z,1.60
2022-08-01T10:37:51.548Z,1.50
2022-08-01T10:40:30.346Z,1.50
2022-08-01T10:42:58.593Z,1.60
2022-08-01T10:45:30.384Z,1.70
2022-08-01T10:48:06.973Z,1.30
2022-08-01T10:50:48.561Z,1.45
2022-08-01T10:53:23.363Z,1.20
2022-08-01T10:55:59.332Z,1.00
2022-08-01T10:58:42.918Z,1.42
2022-08-01T11:01:30.276Z,1.30
2022-08-01T11:04:03.918Z,1.20
2022-08-01T11:06:34.135Z,1.42
2022-08-01T11:09:06.986Z,1.20
2022-08-01T11:11:54.172Z,1.60
2022-08-01T11:14:26.330Z,1.27
2022-08-01T11:16:57.620Z,1.27
2022-08-01T11:19:24.659Z,1.42
2022-08-01T11:21:57.822Z,1.63
2022-08-01T11:24:49.862Z,1.23
2022-08-01T11:27:31.538Z,1.05
2022-08-01T11:30:13.054Z,1.30
2022-08-01T11:33:11.846Z,1.25
2022-08-01T11:35:59.240Z,1.10
2022-08-01T11:38:29.217Z,0.90
2022-08-01T11:41:14.954Z,0.90
2022-08-01T11:43:56.904Z,1.00
2022-08-01T11:46:45.717Z,0.88
2022-08-01T11:49:25.520Z,1.17
2022-08-01T11:52:05.097Z,0.90
2022-08-01T11:54:36.282Z,0.93
2022-08-01T11:57:09.848Z,1.55
2022-08-01T11:59:50.057Z,1.23
2022-08-01T12:02:39.164Z,1.20
2022-08-01T12:05:14.219Z,1.25
2022-08-01T12:07:43.884Z,1.05
2022-08-01T12:10:22.150Z,1.20
2022-08-01T12:13:01.425Z,0.88
2022-08-01T12:15:33.673Z,0.60
2022-08-01T12:18:07.915Z,0.85
2022-08-01T12:20:42.866Z,0.77
2022-08-01T12:23:17.506Z,0.90
2022-08-01T12:25:44.873Z,0.80
2022-08-01T12:28:16.623Z,0.95
2022-08-01T12:30:43.756Z,1.20
2022-08-01T12:33:11.702Z,1.08
2022-08-01T12:35:41.626Z,1.23
2022-08-01T12:38:16.082Z,0.90
2022-08-01T12:40:45.634Z,1.00
2022-08-01T12:43:28.418Z,0.93
2022-08-01T12:46:01.011Z,1.00
2022-08-01T12:48:29.108Z,0.95
2022-08-01T12:50:59.139Z,1.10
2022-08-01T12:53:40.293Z,0.93
2022-08-01T12:56:08.985Z,0.82
2022-08-01T12:58:36.071Z,1.17
2022-08-01T13:01:10.402Z,1.20
2022-08-01T13:03:38.220Z,1.38
2022-08-01T13:06:13.445Z,1.02
2022-08-01T13:08:40.475Z,0.80
2022-08-01T13:11:16.375Z,1.02
2022-08-01T13:13:51.952Z,1.00
2022-08-01T13:16:30.202Z,1.10
2022-08-01T13:19:01.720Z,1.17
2022-08-01T13:21:52.996Z,1.23
2022-08-01T13:24:28.225Z,0.90
2022-08-01T13:27:00.658Z,1.05
2022-08-01T13:29:42.536Z,1.38
2022-08-01T13:32:27.681Z,1.50
2022-08-01T13:35:07.299Z,1.25
2022-08-01T13:37:35.266Z,1.20
2022-08-01T13:40:04.462Z,1.40
2022-08-01T13:42:38.264Z,1.20
2022-08-01T13:45:14.660Z,1.50
2022-08-01T13:48:04.051Z,1.20
2022-08-01T13:50:30.052Z,1.55
2022-08-01T13:52:57.013Z,1.42
2022-08-01T13:55:23.815Z,1.33
2022-08-01T13:57:51.119Z,1.40
2022-08-01T14:00:17.995Z,1.50
2022-08-01T14:02:44.883Z,1.48
2022-08-01T14:05:12.189Z,1.42
2022-08-01T14:07:39.350Z,1.95
2022-08-01T14:10:19.936Z,1.60
2022-08-01T14:12:48.687Z,1.50
2022-08-01T14:15:18.082Z,1.33
2022-08-01T14:18:03.025Z,1.45
2022-08-01T14:20:32.956Z,1.50
2022-08-01T14:23:00.478Z,1.42
2022-08-01T14:26:03.617Z,1.67
2022-08-01T14:28:14.306Z,1.42
2022-08-01T14:30:43.436Z,1.52
2022-08-01T14:33:11.052Z,1.33
2022-08-01T14:36:05.591Z,1.40
2022-08-01T14:38:33.412Z,1.50
2022-08-01T14:41:00.783Z,1.80
2022-08-01T14:43:32.799Z,1.88
2022-08-01T14:46:01.508Z,1.70
2022-08-01T14:48:28.290Z,2.20
2022-08-01T14:50:57.716Z,2.13
2022-08-01T14:53:24.531Z,1.92
2022-08-01T14:55:51.351Z,1.63
2022-08-01T14:58:18.118Z,1.60
2022-08-01T15:00:45.305Z,1.52
2022-08-01T15:03:12.173Z,2.00
2022-08-01T15:05:39.116Z,1.58
2022-08-01T15:08:07.447Z,1.90
2022-08-01T15:10:34.284Z,1.98
2022-08-01T15:13:02.653Z,1.88
2022-08-01T15:15:30.166Z,1.88
2022-08-01T15:17:57.341Z,1.75
2022-08-01T15:20:25.490Z,2.30
2022-08-01T15:22:52.837Z,2.28
2022-08-01T15:25:20.063Z,2.72
2022-08-01T15:27:46.921Z,2.53
2022-08-01T15:30:13.802Z,2.30
2022-08-01T15:32:40.562Z,2.15
2022-08-01T15:35:08.131Z,1.92
2022-08-01T15:37:38.391Z,2.10
2022-08-01T15:40:08.376Z,2.15
2022-08-01T15:42:35.897Z,1.95
2022-08-01T15:45:08.745Z,2.10
2022-08-01T15:47:42.861Z,1.70
2022-08-01T15:50:09.836Z,2.33
2022-08-01T15:52:36.716Z,2.25
2022-08-01T15:55:04.266Z,2.20
2022-08-01T15:57:31.062Z,2.33
2022-08-01T15:59:57.943Z,2.50
2022-08-01T16:02:24.783Z,2.08
2022-08-01T16:04:51.768Z,2.47
2022-08-01T16:07:18.628Z,2.17
2022-08-01T16:09:45.544Z,2.42
2022-08-01T16:12:12.551Z,2.22
2022-08-01T16:14:39.433Z,2.00
2022-08-01T16:17:06.245Z,2.00
2022-08-01T16:19:33.004Z,2.42
2022-08-01T16:22:00.006Z,2.50
2022-08-01T16:24:29.418Z,2.38
2022-08-01T16:26:56.866Z,2.00
2022-08-01T16:29:25.698Z,2.42
2022-08-01T16:32:03.108Z,2.05
2022-08-01T16:34:36.420Z,2.53
2022-08-01T16:37:04.128Z,2.08
2022-08-01T16:39:39.492Z,2.55
2022-08-01T16:42:07.342Z,2.50
2022-08-01T16:44:34.659Z,2.47
2022-08-01T16:47:05.234Z,2.40
2022-08-01T16:49:32.586Z,2.30
2022-08-01T16:51:59.654Z,2.65
2022-08-01T16:54:29.463Z,2.58
2022-08-01T16:56:58.006Z,2.08
2022-08-01T16:59:40.777Z,2.45
2022-08-01T17:02:09.288Z,2.30
2022-08-01T17:04:36.204Z,2.30
2022-08-01T17:07:03.160Z,2.58
2022-08-01T17:09:30.007Z,1.90
2022-08-01T17:11:56.822Z,2.60
2022-08-01T17:14:23.677Z,2.35
2022-08-01T17:16:50.744Z,2.50
2022-08-01T17:19:17.523Z,2.42
2022-08-01T17:21:44.311Z,2.20
2022-08-01T17:24:11.648Z,2.25
2022-08-01T17:26:43.571Z,2.55
2022-08-01T17:29:10.442Z,2.55
2022-08-01T17:31:37.271Z,2.20
2022-08-01T17:34:04.108Z,2.20
2022-08-01T17:36:30.951Z,2.50
2022-08-01T17:38:59.177Z,2.15
2022-08-01T17:41:26.108Z,2.20
2022-08-01T17:43:53.018Z,2.45
2022-08-01T17:46:19.824Z,2.45
2022-08-01T17:48:46.807Z,2.08
2022-08-01T17:51:15.398Z,2.30
2022-08-01T17:53:53.829Z,2.42
2022-08-01T17:56:25.834Z,2.22
2022-08-01T17:58:52.870Z,2.28
2022-08-01T18:01:19.887Z,1.85
2022-08-01T18:03:47.205Z,2.00
2022-08-01T18:06:17.369Z,1.60
2022-08-01T18:08:47.619Z,2.08
2022-08-01T18:11:15.993Z,1.60
2022-08-01T18:13:43.331Z,1.70
2022-08-01T18:16:12.876Z,1.85
2022-08-01T18:18:41.369Z,1.70
2022-08-01T18:21:08.463Z,1.80
2022-08-01T18:23:35.697Z,1.52
2022-08-01T18:26:06.942Z,1.90
2022-08-01T18:28:41.643Z,1.60
2022-08-01T18:31:11.724Z,1.70
2022-08-01T18:33:38.505Z,1.70
2022-08-01T18:36:05.914Z,1.85
2022-08-01T18:38:33.482Z,1.80
2022-08-01T18:41:02.113Z,1.77
2022-08-01T18:43:29.236Z,1.95
2022-08-01T18:45:58.850Z,1.70
2022-08-01T18:48:25.720Z,1.50
2022-08-01T18:50:54.010Z,2.10
2022-08-01T18:53:23.630Z,1.55
2022-08-01T18:55:50.900Z,1.70
2022-08-01T18:58:17.942Z,1.50
2022-08-01T19:00:45.093Z,1.77
2022-08-01T19:03:13.642Z,1.83
2022-08-01T19:05:40.491Z,1.40
2022-08-01T19:08:08.231Z,1.30
2022-08-01T19:10:44.540Z,1.30
2022-08-01T19:13:11.871Z,1.35
2022-08-01T19:15:39.496Z,1.67
2022-08-01T19:18:06.777Z,1.67
2022-08-01T19:20:33.759Z,1.40
2022-08-01T19:23:21.389Z,1.67
2022-08-01T19:25:55.240Z,1.50
2022-08-01T19:28:26.714Z,1.60
2022-08-01T19:30:55.311Z,1.10
2022-08-01T19:33:22.673Z,1.45
2022-08-01T19:35:52.551Z,1.50
2022-08-01T19:38:20.267Z,1.00
2022-08-01T19:40:47.088Z,1.58
2022-08-01T19:43:15.252Z,1.65
2022-08-01T19:45:42.586Z,2.05
2022-08-01T19:48:10.290Z,1.50
2022-08-01T19:50:41.384Z,1.30
2022-08-01T19:53:11.193Z,1.70
2022-08-01T19:55:39.828Z,1.67
2022-08-01T19:58:28.819Z,1.50
2022-08-01T20:00:55.941Z,1.40
2022-08-01T20:03:24.013Z,1.40
2022-08-01T20:05:51.367Z,1.67
2022-08-01T20:08:20.439Z,1.70
2022-08-01T20:10:48.266Z,1.38
2022-08-01T20:13:15.667Z,1.55
2022-08-01T20:15:44.763Z,1.65
2022-08-01T20:18:11.785Z,1.17
2022-08-01T20:20:38.827Z,1.40
2022-08-01T20:23:10.316Z,1.23
2022-08-01T20:25:40.106Z,1.33
2022-08-01T20:28:09.785Z,1.42
2022-08-01T20:30:37.647Z,1.55
2022-08-01T20:33:06.414Z,1.55
2022-08-01T20:35:51.754Z,1.35
2022-08-01T20:38:23.995Z,1.70
2022-08-01T20:40:54.502Z,1.50
2022-08-01T20:43:22.370Z,1.60
2022-08-01T20:45:51.335Z,1.50
2022-08-01T20:48:18.760Z,2.00
2022-08-01T20:51:05.827Z,1.60
2022-08-01T20:53:36.683Z,1.50
2022-08-01T20:56:28.014Z,1.42
2022-08-01T20:59:06.623Z,1.65
2022-08-01T21:01:58.314Z,1.95
2022-08-01T21:04:39.793Z,1.70
2022-08-01T21:07:32.995Z,1.88
2022-08-01T21:10:07.268Z,1.73
2022-08-01T21:12:49.307Z,1.85
2022-08-01T21:15:32.680Z,1.50
2022-08-01T21:18:20.521Z,1.70
2022-08-01T21:20:58.578Z,1.73
2022-08-01T21:23:34.127Z,1.60
2022-08-01T21:26:01.420Z,1.80
2022-08-01T21:28:28.603Z,1.48
2022-08-01T21:30:59.266Z,1.90
2022-08-01T21:33:28.811Z,1.85
2022-08-01T21:36:04.146Z,2.15
2022-08-01T21:38:35.422Z,2.25
2022-08-01T21:41:06.768Z,1.75
2022-08-01T21:43:35.007Z,1.92
2022-08-01T21:46:03.001Z,2.08
2022-08-01T21:48:31.437Z,2.10
2022-08-01T21:50:59.587Z,2.45
2022-08-01T21:53:43.529Z,2.13
2022-08-01T21:56:59.871Z,2.17
2022-08-01T21:59:51.300Z,2.00
2022-08-01T22:02:53.447Z,2.80
2022-08-01T22:05:25.456Z,2.63
2022-08-01T22:08:13.602Z,2.08
2022-08-01T22:10:40.643Z,2.53
2022-08-01T22:13:08.688Z,2.10
2022-08-01T22:15:44.325Z,2.38
2022-08-01T22:18:12.469Z,1.88
2022-08-01T22:20:40.205Z,2.33
2022-08-01T22:23:07.247Z,1.98
2022-08-01T22:25:34.546Z,2.13
2022-08-01T22:28:08.561Z,2.13
2022-08-01T22:30:41.847Z,2.25
2022-08-01T22:33:17.215Z,2.05
2022-08-01T22:35:49.678Z,2.10
2022-08-01T22:38:22.925Z,2.00
2022-08-01T22:41:13.069Z,2.15
2022-08-01T22:43:57.026Z,1.73
2022-08-01T22:46:43.352Z,2.40
2022-08-01T22:49:40.529Z,2.15
2022-08-01T22:52:18.222Z,1.90
2022-08-01T22:55:08.837Z,1.83
2022-08-01T22:58:02.049Z,1.55
2022-08-01T23:00:32.223Z,1.60
2022-08-01T23:03:06.855Z,1.75
2022-08-01T23:05:38.565Z,1.92
2022-08-01T23:08:11.673Z,1.70
2022-08-01T23:10:42.461Z,1.60
2022-08-01T23:13:10.212Z,1.73
2022-08-01T23:15:37.414Z,1.55
2022-08-01T23:18:05.896Z,1.77
2022-08-01T23:20:34.556Z,2.05
2022-08-01T23:23:02.685Z,2.00
2022-08-01T23:25:32.692Z,2.15
2022-08-01T23:28:04.980Z,2.20
2022-08-01T23:30:34.452Z,2.15
2022-08-01T23:33:01.821Z,2.40
2022-08-01T23:35:29.584Z,2.42
2022-08-01T23:38:02.100Z,2.58
2022-08-01T23:40:31.914Z,2.70
2022-08-01T23:42:59.259Z,2.95
2022-08-01T23:45:26.121Z,2.80
2022-08-01T23:47:52.985Z,2.60
2022-08-01T23:50:21.816Z,2.78
2022-08-01T23:52:51.299Z,2.63
2022-08-01T23:55:24.458Z,2.47
2022-08-01T23:58:06.096Z,2.53
